Eems Spirit — PBTK — position and weather

sailwx.info

Track history (hours):
 
Tides and Currents Weather Stations Pressure Air Temp Water Temp Dewpoint Dewpoint Depression Visibility Wind Speed Wind Dir Waves Ship Positions

Eems Spirit

Last reported at 2018-Feb-21 05:29 UTC. Time now 2018-Feb-21 05:41 UTC.
Position N 62°55' E 006°15'.

Length 87 m; draft 4.3 m.

Type: Cargo ship. MMSI: 246593000.

Date/timePositionNaut miles runAvg speedWind from/ knotsBaromVisibWave heightAir tempDewpointWater temp
2018-Feb-21 05:29N 62°55' E 006°15'4 8.2
2018-Feb-21 05:00N 62°56' E 006°23'4 8.3
2018-Feb-21 04:30N 62°58' E 006°31'4 8.5
2018-Feb-21 03:59N 63°01' E 006°39'4 7.9
2018-Feb-21 03:29N 63°02' E 006°47'4 7.3
2018-Feb-21 03:00N 63°04' E 006°54'3 6.9
2018-Feb-21 02:30N 63°06' E 007°00'3 6.6
2018-Feb-21 02:00N 63°08' E 007°07'4 7.4
2018-Feb-21 01:30N 63°10' E 007°14'4 7.8
2018-Feb-21 01:01N 63°11' E 007°21'4 8.0
2018-Feb-21 00:30N 63°13' E 007°29'4 8.0
2018-Feb-21 00:00N 63°15' E 007°37'4 8.6
2018-Feb-20 23:31N 63°12' E 007°45'5 9.1
2018-Feb-20 23:00N 63°08' E 007°41'5 9.4
2018-Feb-20 22:30N 63°03' E 007°41'5 9.5
2018-Feb-20 22:00N 62°59' E 007°46'4 8.2
2018-Feb-20 21:30N 62°58' E 007°54'5 8.8
2018-Feb-20 21:00N 62°57' E 008°04'5 9.6
2018-Feb-20 20:29N 62°53' E 008°08'5 9.8
2018-Feb-20 20:00N 62°49' E 008°13'510.2
2018-Feb-20 19:30N 62°46' E 008°23'510.1
2018-Feb-20 18:59N 62°43' E 008°31'2 3.9
2018-Feb-20 18:29N 62°41' E 008°33'0 0.0
2018-Feb-20 17:59N 62°41' E 008°33'0 0.0
2018-Feb-20 17:29N 62°41' E 008°33'0 0.0
2018-Feb-20 16:59N 62°41' E 008°33'0 0.0
2018-Feb-20 16:17N 62°41' E 008°33'0 0.0
2018-Feb-20 15:56N 62°41' E 008°33'0 0.0
2018-Feb-20 15:29N 62°41' E 008°33'0 0.0
2018-Feb-20 14:59N 62°41' E 008°33'0 0.0
2018-Feb-20 14:26N 62°41' E 008°33'0 0.0
2018-Feb-20 13:59N 62°41' E 008°33'0 0.0
2018-Feb-20 13:29N 62°41' E 008°33'0 0.0
2018-Feb-20 12:59N 62°41' E 008°33'0 0.0
2018-Feb-20 12:29N 62°41' E 008°33'0 0.0
2018-Feb-20 11:59N 62°41' E 008°33'0 0.0
2018-Feb-20 11:29N 62°41' E 008°33'0 0.0
2018-Feb-20 10:59N 62°41' E 008°33'0 0.0
2018-Feb-20 10:29N 62°41' E 008°33'0 0.0
2018-Feb-20 09:59N 62°41' E 008°33'0 0.0
2018-Feb-20 09:29N 62°41' E 008°33'0 0.0
2018-Feb-20 08:59N 62°41' E 008°33'0 0.0
2018-Feb-20 08:26N 62°41' E 008°33'0 0.0
2018-Feb-20 07:56N 62°41' E 008°33'0 0.0
2018-Feb-20 07:29N 62°41' E 008°33'0 0.0
2018-Feb-20 06:59N 62°41' E 008°33'0 0.0
2018-Feb-20 06:29N 62°41' E 008°33'0 0.0
2018-Feb-20 05:59N 62°41' E 008°33'0 0.0
2018-Feb-20 05:29N 62°41' E 008°33'0 0.0
2018-Feb-20 04:59N 62°41' E 008°33'0 0.0
2018-Feb-20 04:29N 62°41' E 008°33'0 0.0
2018-Feb-20 03:59N 62°41' E 008°33'0 0.0
2018-Feb-20 03:29N 62°41' E 008°33'0 0.0
2018-Feb-20 02:56N 62°41' E 008°33'0 0.0
2018-Feb-20 02:26N 62°41' E 008°33'0 0.0
2018-Feb-20 01:59N 62°41' E 008°33'0 0.0
2018-Feb-20 01:29N 62°41' E 008°33'0 0.0
2018-Feb-20 00:59N 62°41' E 008°33'0 0.0
2018-Feb-20 00:29N 62°41' E 008°33'0 0.0
2018-Feb-19 23:59N 62°41' E 008°33'0 0.0
2018-Feb-19 23:26N 62°41' E 008°33'0 0.0
2018-Feb-19 22:59N 62°41' E 008°33'0 0.0
2018-Feb-19 22:29N 62°41' E 008°33'0 0.0
2018-Feb-19 21:59N 62°41' E 008°33'0 0.0
2018-Feb-19 21:29N 62°41' E 008°33'0 0.0
2018-Feb-19 20:56N 62°41' E 008°33'0 0.0
2018-Feb-19 20:26N 62°41' E 008°33'0 0.0
2018-Feb-19 19:59N 62°41' E 008°33'0 0.0
2018-Feb-19 19:29N 62°41' E 008°33'0 0.0
2018-Feb-19 18:59N 62°41' E 008°33'0 0.0
2018-Feb-19 18:29N 62°41' E 008°33'0 0.0
2018-Feb-19 17:56N 62°41' E 008°33'0 0.0
2018-Feb-19 17:23N 62°41' E 008°33'0 0.0
2018-Feb-19 16:56N 62°41' E 008°33'0 0.0
2018-Feb-19 16:29N 62°41' E 008°33'0 0.0
2018-Feb-19 15:59N 62°41' E 008°33'0 0.0
2018-Feb-19 15:29N 62°41' E 008°33'0 0.0
2018-Feb-19 14:59N 62°41' E 008°33'0 0.0
2018-Feb-19 14:26N 62°41' E 008°33'0 0.0
2018-Feb-19 13:59N 62°41' E 008°33'0 0.0
2018-Feb-19 13:26N 62°41' E 008°33'0 0.0
2018-Feb-19 12:56N 62°41' E 008°33'0 0.0
2018-Feb-19 12:29N 62°41' E 008°33'0 0.0
2018-Feb-19 11:59N 62°41' E 008°33'0 0.0
2018-Feb-19 11:30N 62°41' E 008°33'2 4.6
2018-Feb-19 11:00N 62°43' E 008°31'5 9.7
2018-Feb-19 10:30N 62°46' E 008°22'5 9.6
2018-Feb-19 10:00N 62°49' E 008°14'5 9.6
2018-Feb-19 09:30N 62°53' E 008°08'5 9.7
2018-Feb-19 09:00N 62°57' E 008°04'5 9.2
2018-Feb-19 08:30N 62°58' E 007°55'4 8.2
2018-Feb-19 08:00N 62°59' E 007°46'2 4.5
2018-Feb-19 07:28N 63°01' E 007°50'0 0.1
2018-Feb-19 06:58N 63°01' E 007°50'0 0.0
2018-Feb-19 06:28N 63°01' E 007°50'0 0.0
2018-Feb-19 05:58N 63°01' E 007°50'0 0.0
2018-Feb-19 05:28N 63°01' E 007°50'0 0.0
2018-Feb-19 04:58N 63°01' E 007°50'0 0.0
2018-Feb-19 04:28N 63°01' E 007°50'0 0.1
2018-Feb-19 03:58N 63°01' E 007°50'0 0.0
2018-Feb-19 03:28N 63°01' E 007°50'0 0.0
2018-Feb-19 02:58N 63°01' E 007°50'0 0.1
2018-Feb-19 02:28N 63°01' E 007°50'0 0.0
2018-Feb-19 01:58N 63°01' E 007°50'0 0.0
2018-Feb-19 01:28N 63°01' E 007°50'0 0.0
2018-Feb-19 00:58N 63°01' E 007°50'0 0.0
2018-Feb-19 00:28N 63°01' E 007°50'0 0.1
2018-Feb-18 23:58N 63°01' E 007°50'0 0.1
2018-Feb-18 23:28N 63°01' E 007°50'0 0.0
2018-Feb-18 22:58N 63°01' E 007°50'0 0.0
2018-Feb-18 22:28N 63°01' E 007°50'0 0.0
2018-Feb-18 21:58N 63°01' E 007°50'0 0.0
2018-Feb-18 21:28N 63°01' E 007°50'0 0.1
2018-Feb-18 20:58N 63°01' E 007°50'0 0.1
2018-Feb-18 20:28N 63°01' E 007°50'0 0.0
2018-Feb-18 19:58N 63°01' E 007°50'0 0.0
2018-Feb-18 19:28N 63°01' E 007°50'0 0.2
2018-Feb-18 18:58N 63°01' E 007°50'0 0.1
2018-Feb-18 18:28N 63°01' E 007°50'0 0.0
2018-Feb-18 17:58N 63°01' E 007°50'0 0.0
2018-Feb-18 17:28N 63°01' E 007°50'0 0.1
2018-Feb-18 16:58N 63°01' E 007°50'0 0.0
2018-Feb-18 16:28N 63°01' E 007°50'0 0.1
2018-Feb-18 15:58N 63°01' E 007°50'0 0.0
2018-Feb-18 15:28N 63°01' E 007°50'0 0.0
2018-Feb-18 14:58N 63°01' E 007°50'0 0.0
2018-Feb-18 14:28N 63°01' E 007°50'0 0.0
2018-Feb-18 13:58N 63°01' E 007°50'0 0.0
2018-Feb-18 13:28N 63°01' E 007°50'0 0.0
2018-Feb-18 12:58N 63°01' E 007°50'0 0.0
2018-Feb-18 12:28N 63°01' E 007°50'0 0.0
2018-Feb-18 11:58N 63°01' E 007°50'0 0.0
2018-Feb-18 11:28N 63°01' E 007°50'0 0.0
2018-Feb-18 10:58N 63°01' E 007°50'0 0.1
2018-Feb-18 10:28N 63°01' E 007°50'0 0.0
2018-Feb-18 09:58N 63°01' E 007°50'0 0.0
2018-Feb-18 09:28N 63°01' E 007°50'0 0.1
2018-Feb-18 08:58N 63°01' E 007°50'0 0.0
2018-Feb-18 08:28N 63°01' E 007°50'0 0.0
2018-Feb-18 07:58N 63°01' E 007°50'0 0.1
2018-Feb-18 07:28N 63°01' E 007°50'0 0.1
2018-Feb-18 06:58N 63°01' E 007°50'0 0.0
2018-Feb-18 06:28N 63°01' E 007°50'0 0.0
2018-Feb-18 05:58N 63°01' E 007°50'0 0.0
2018-Feb-18 05:28N 63°01' E 007°50'0 0.0
2018-Feb-18 04:58N 63°01' E 007°50'0 0.0
2018-Feb-18 04:28N 63°01' E 007°50'0 0.0
2018-Feb-18 03:58N 63°01' E 007°50'0 0.0
2018-Feb-18 03:28N 63°01' E 007°50'0 0.0
2018-Feb-18 02:58N 63°01' E 007°50'0 0.0
2018-Feb-18 02:28N 63°01' E 007°50'0 0.0
2018-Feb-18 01:58N 63°01' E 007°50'0 0.0
2018-Feb-18 01:28N 63°01' E 007°50'0 0.0
2018-Feb-18 00:58N 63°01' E 007°50'0 0.1
2018-Feb-18 00:28N 63°01' E 007°50'0 0.0
2018-Feb-17 23:58N 63°01' E 007°50'0 0.0
2018-Feb-17 23:28N 63°01' E 007°50'0 0.1
2018-Feb-17 22:58N 63°01' E 007°50'0 0.0
2018-Feb-17 22:28N 63°01' E 007°50'0 0.1
2018-Feb-17 21:58N 63°01' E 007°50'0 1.1
2018-Feb-17 21:30N 63°02' E 007°51'4 9.0
2018-Feb-17 21:00N 63°06' E 007°55'5 9.2
2018-Feb-17 20:30N 63°09' E 007°49'5 9.0
2018-Feb-17 20:00N 63°13' E 007°44'4 8.2
2018-Feb-17 19:30N 63°15' E 007°36'4 7.9
2018-Feb-17 19:00N 63°13' E 007°28'5 9.9
2018-Feb-17 18:30N 63°11' E 007°18'510.3
2018-Feb-17 18:00N 63°08' E 007°09'510.1
2018-Feb-17 17:29N 63°05' E 006°59'5 9.9
2018-Feb-17 17:00N 63°03' E 006°50'5 9.8
2018-Feb-17 16:30N 62°60' E 006°41'5 9.5
2018-Feb-17 16:00N 62°58' E 006°31'510.1
2018-Feb-17 15:30N 62°56' E 006°21'510.7
2018-Feb-17 15:00N 62°53' E 006°11'510.3
2018-Feb-17 14:30N 62°50' E 006°02'510.2
2018-Feb-17 14:00N 62°46' E 005°54'5 9.6
2018-Feb-17 13:30N 62°43' E 005°47'510.9
2018-Feb-17 13:00N 62°39' E 005°39'510.1
2018-Feb-17 12:30N 62°35' E 005°32'5 9.7
2018-Feb-17 11:59N 62°31' E 005°25'5 9.6
2018-Feb-17 11:30N 62°28' E 005°18'510.2
2018-Feb-17 11:00N 62°24' E 005°11'5 9.8
2018-Feb-17 10:30N 62°20' E 005°03'5 9.8
2018-Feb-17 10:00N 62°17' E 004°56'5 9.7
2018-Feb-17 09:30N 62°13' E 004°49'5 9.7
2018-Feb-17 09:00N 62°09' E 004°43'510.9
2018-Feb-17 08:30N 62°04' E 004°39'611.4
2018-Feb-17 08:00N 61°59' E 004°34'611.1
2018-Feb-17 07:29N 61°54' E 004°31'510.9
2018-Feb-17 07:00N 61°49' E 004°27'510.6
2018-Feb-17 06:30N 61°43' E 004°24'  
2018-Feb-14 14:21N 52°12' E 001°47'411.4
2018-Feb-14 14:00N 52°08' E 001°44'611.5
2018-Feb-14 13:31N 52°03' E 001°39'611.4
2018-Feb-14 13:00N 51°58' E 001°35'510.3
2018-Feb-14 12:31N 51°56' E 001°28'5 9.2
2018-Feb-14 12:01N 51°55' E 001°20'4 7.3
2018-Feb-14 11:31N 51°57' E 001°15'4 8.5
2018-Feb-14 11:00N 51°57' E 001°08'2 3.6
2018-Feb-14 10:30N 51°57' E 001°05'0 0.0
2018-Feb-14 10:00N 51°57' E 001°05'0 0.0
2018-Feb-14 09:30N 51°57' E 001°05'0 0.0
2018-Feb-14 09:00N 51°57' E 001°05'0 0.0
2018-Feb-14 08:30N 51°57' E 001°05'0 0.0
2018-Feb-14 08:00N 51°57' E 001°05'0 0.0
2018-Feb-14 07:30N 51°57' E 001°05'0 0.0
2018-Feb-14 07:00N 51°57' E 001°05'0 0.0
2018-Feb-14 06:30N 51°57' E 001°05'0 0.0
2018-Feb-14 06:00N 51°57' E 001°05'0 0.0
2018-Feb-14 05:30N 51°57' E 001°05'0 0.0
2018-Feb-14 05:00N 51°57' E 001°05'0 0.0
2018-Feb-14 04:30N 51°57' E 001°05'0 0.0
2018-Feb-14 04:00N 51°57' E 001°05'0 0.0
2018-Feb-14 03:30N 51°57' E 001°05'0 0.0
2018-Feb-14 03:00N 51°57' E 001°05'0 0.0
2018-Feb-14 02:30N 51°57' E 001°05'0 0.0
2018-Feb-14 02:00N 51°57' E 001°05'0 0.0
2018-Feb-14 01:30N 51°57' E 001°05'0 0.0
2018-Feb-14 01:00N 51°57' E 001°05'0 0.0
2018-Feb-14 00:30N 51°57' E 001°05'0 0.0
2018-Feb-14 00:00N 51°57' E 001°05'0 0.0
2018-Feb-13 23:30N 51°57' E 001°05'0 0.0
2018-Feb-13 23:00N 51°57' E 001°05'0 0.0
2018-Feb-13 22:30N 51°57' E 001°05'0 0.0
2018-Feb-13 22:00N 51°57' E 001°05'0 0.0
2018-Feb-13 21:30N 51°57' E 001°05'0 0.0
2018-Feb-13 21:00N 51°57' E 001°05'0 0.0
2018-Feb-13 20:30N 51°57' E 001°05'0 0.0
2018-Feb-13 20:00N 51°57' E 001°05'0 0.0
2018-Feb-13 19:30N 51°57' E 001°05'0 0.0
2018-Feb-13 19:00N 51°57' E 001°05'0 0.0
2018-Feb-13 18:30N 51°57' E 001°05'0 0.0
2018-Feb-13 18:00N 51°57' E 001°05'0 0.0
2018-Feb-13 17:30N 51°57' E 001°05'0 0.0
2018-Feb-13 17:00N 51°57' E 001°05'0 0.0
2018-Feb-13 16:30N 51°57' E 001°05'0 0.0
2018-Feb-13 16:00N 51°57' E 001°05'0 0.0
2018-Feb-13 15:30N 51°57' E 001°05'0 0.0
2018-Feb-13 15:00N 51°57' E 001°05'0 0.0
2018-Feb-13 14:30N 51°57' E 001°05'0 0.0
2018-Feb-13 14:00N 51°57' E 001°05'0 0.0
2018-Feb-13 13:30N 51°57' E 001°05'0 0.0
2018-Feb-13 13:00N 51°57' E 001°05'0 0.0
2018-Feb-13 12:30N 51°57' E 001°05'0 0.0
2018-Feb-13 12:00N 51°57' E 001°05'0 0.0
2018-Feb-13 11:30N 51°57' E 001°05'0 0.0
2018-Feb-13 11:00N 51°57' E 001°05'0 0.0
2018-Feb-13 10:30N 51°57' E 001°05'0 0.0
2018-Feb-13 10:00N 51°57' E 001°05'0 0.0
2018-Feb-13 09:30N 51°57' E 001°05'0 0.0
2018-Feb-13 09:00N 51°57' E 001°05'0 0.0
2018-Feb-13 08:30N 51°57' E 001°05'0 0.0
2018-Feb-13 08:00N 51°57' E 001°05'0 0.0
2018-Feb-13 07:30N 51°57' E 001°05'0 0.0
2018-Feb-13 07:00N 51°57' E 001°05'0 0.0
2018-Feb-13 06:30N 51°57' E 001°05'0 0.0
2018-Feb-13 06:00N 51°57' E 001°05'0 0.0
2018-Feb-13 05:30N 51°57' E 001°05'0 0.0
2018-Feb-13 05:00N 51°57' E 001°05'0 0.0
2018-Feb-13 04:30N 51°57' E 001°05'0 0.0
2018-Feb-13 04:00N 51°57' E 001°05'0 0.0
2018-Feb-13 03:30N 51°57' E 001°05'0 0.0
2018-Feb-13 03:00N 51°57' E 001°05'0 0.0
2018-Feb-13 02:30N 51°57' E 001°05'0 0.0
2018-Feb-13 02:00N 51°57' E 001°05'0 0.0
2018-Feb-13 01:30N 51°57' E 001°05'0 0.0
2018-Feb-13 01:00N 51°57' E 001°05'0 0.0
2018-Feb-13 00:30N 51°57' E 001°05'0 0.0
2018-Feb-13 00:00N 51°57' E 001°05'0 0.0
2018-Feb-12 23:30N 51°57' E 001°05'0 0.0
2018-Feb-12 23:00N 51°57' E 001°05'0 0.0
2018-Feb-12 22:30N 51°57' E 001°05'0 0.0
2018-Feb-12 22:00N 51°57' E 001°05'0 0.0
2018-Feb-12 21:30N 51°57' E 001°05'0 0.0
2018-Feb-12 21:00N 51°57' E 001°05'0 0.0
2018-Feb-12 20:30N 51°57' E 001°05'0 0.0
2018-Feb-12 20:00N 51°57' E 001°05'0 0.0
2018-Feb-12 19:30N 51°57' E 001°05'0 0.0
2018-Feb-12 19:00N 51°57' E 001°05'0 0.0
2018-Feb-12 18:30N 51°57' E 001°05'0 0.0
2018-Feb-12 18:00N 51°57' E 001°05'0 0.0
2018-Feb-12 17:30N 51°57' E 001°05'0 0.0
2018-Feb-12 17:00N 51°57' E 001°05'0 0.0
2018-Feb-12 16:30N 51°57' E 001°05'0 0.0
2018-Feb-12 16:00N 51°57' E 001°05'0 0.0
2018-Feb-12 15:30N 51°57' E 001°05'0 0.0
2018-Feb-12 15:00N 51°57' E 001°05'0 0.0
2018-Feb-12 14:30N 51°57' E 001°05'0 0.0
2018-Feb-12 14:00N 51°57' E 001°05'0 0.0
2018-Feb-12 13:30N 51°57' E 001°05'0 0.0
2018-Feb-12 13:00N 51°57' E 001°05'0 0.0
2018-Feb-12 12:30N 51°57' E 001°05'0 0.0
2018-Feb-12 12:00N 51°57' E 001°05'0 0.0
2018-Feb-12 11:30N 51°57' E 001°05'0 0.0
2018-Feb-12 11:00N 51°57' E 001°05'0 0.0
2018-Feb-12 10:30N 51°57' E 001°05'0 0.0
2018-Feb-12 10:00N 51°57' E 001°05'0 0.0
2018-Feb-12 09:30N 51°57' E 001°05'0 0.0
2018-Feb-12 09:00N 51°57' E 001°05'0 0.0
2018-Feb-12 08:31N 51°57' E 001°05'2 5.0
2018-Feb-12 08:01N 51°57' E 001°09'3 6.9
2018-Feb-12 07:30N 51°57' E 001°15'3 5.4
2018-Feb-12 07:00N 51°56' E 001°19'3 6.5
2018-Feb-12 06:31N 51°56' E 001°24'1 2.3
2018-Feb-12 06:00N 51°57' E 001°25'0 0.1
2018-Feb-12 05:30N 51°57' E 001°25'0 0.0
2018-Feb-12 05:00N 51°57' E 001°25'0 0.0
2018-Feb-12 04:30N 51°57' E 001°25'0 0.1
2018-Feb-12 04:00N 51°57' E 001°25'0 0.2
2018-Feb-12 03:30N 51°57' E 001°26'0 0.1
2018-Feb-12 03:00N 51°57' E 001°26'0 0.0
2018-Feb-12 02:30N 51°57' E 001°26'0 0.0
2018-Feb-12 02:00N 51°57' E 001°26'0 0.0
2018-Feb-12 01:30N 51°57' E 001°26'0 0.0
2018-Feb-12 01:00N 51°57' E 001°26'0 0.0
2018-Feb-12 00:30N 51°57' E 001°26'0 0.0
2018-Feb-12 00:00N 51°57' E 001°26'0 0.0
2018-Feb-11 23:30N 51°57' E 001°26'0 0.0
2018-Feb-11 23:00N 51°57' E 001°26'0 0.0
2018-Feb-11 22:30N 51°57' E 001°26'0 0.0
2018-Feb-11 22:00N 51°57' E 001°26'0 0.0
2018-Feb-11 21:30N 51°57' E 001°26'0 0.0
2018-Feb-11 21:00N 51°57' E 001°26'0 0.0
2018-Feb-11 20:30N 51°57' E 001°26'0 0.1
2018-Feb-11 20:00N 51°57' E 001°26'0 0.1
2018-Feb-11 19:30N 51°57' E 001°25'0 0.0
2018-Feb-11 19:00N 51°57' E 001°25'0 0.0
2018-Feb-11 18:30N 51°57' E 001°25'0 0.0
2018-Feb-11 18:00N 51°57' E 001°25'0 0.2
2018-Feb-11 17:30N 51°57' E 001°26'3 7.0
2018-Feb-11 17:00N 51°57' E 001°31'4 7.7
2018-Feb-11 16:30N 51°53' E 001°34'4 8.4
2018-Feb-11 16:00N 51°52' E 001°40'4 9.0
2018-Feb-11 15:30N 51°50' E 001°47'4 8.9
2018-Feb-11 15:00N 51°46' E 001°48'5 9.2
2018-Feb-11 14:30N 51°42' E 001°49'5 9.0
2018-Feb-11 14:00N 51°37' E 001°50'5 9.3
2018-Feb-11 13:30N 51°33' E 001°48'5 9.2
2018-Feb-11 13:00N 51°28' E 001°47'5 9.6
2018-Feb-11 12:30N 51°23' E 001°45'510.3
2018-Feb-11 12:00N 51°19' E 001°42'510.8
2018-Feb-11 11:30N 51°13' E 001°39'5 9.4
2018-Feb-11 11:00N 51°09' E 001°39'4 8.9
2018-Feb-11 10:30N 51°04' E 001°39'611.0
2018-Feb-11 09:59N 50°59' E 001°34'511.3
2018-Feb-11 09:30N 50°55' E 001°30'710.7
2018-Feb-11 08:53N 50°49' E 001°25'7 9.9
2018-Feb-11 08:08N 50°42' E 001°19'  
Track history (hours):
 
Tides and Currents Weather Stations Pressure Air Temp Water Temp Dewpoint Dewpoint Depression Visibility Wind Speed Wind Dir Waves Ship Positions

Eems Spirit

Last reported at 2018-Feb-21 05:29 UTC. Time now 2018-Feb-21 05:41 UTC.
Position N 62°55' E 006°15'.

Length 87 m; draft 4.3 m.

Type: Cargo ship. MMSI: 246593000.

Date/timePositionNaut miles runAvg speedWind from/ knotsBaromVisibWave heightAir tempDewpointWater temp
2018-Feb-21 05:29N 62°55' E 006°15'4 8.2
2018-Feb-21 05:00N 62°56' E 006°23'4 8.3
2018-Feb-21 04:30N 62°58' E 006°31'4 8.5
2018-Feb-21 03:59N 63°01' E 006°39'4 7.9
2018-Feb-21 03:29N 63°02' E 006°47'4 7.3
2018-Feb-21 03:00N 63°04' E 006°54'3 6.9
2018-Feb-21 02:30N 63°06' E 007°00'3 6.6
2018-Feb-21 02:00N 63°08' E 007°07'4 7.4
2018-Feb-21 01:30N 63°10' E 007°14'4 7.8
2018-Feb-21 01:01N 63°11' E 007°21'4 8.0
2018-Feb-21 00:30N 63°13' E 007°29'4 8.0
2018-Feb-21 00:00N 63°15' E 007°37'4 8.6
2018-Feb-20 23:31N 63°12' E 007°45'5 9.1
2018-Feb-20 23:00N 63°08' E 007°41'5 9.4
2018-Feb-20 22:30N 63°03' E 007°41'5 9.5
2018-Feb-20 22:00N 62°59' E 007°46'4 8.2
2018-Feb-20 21:30N 62°58' E 007°54'5 8.8
2018-Feb-20 21:00N 62°57' E 008°04'5 9.6
2018-Feb-20 20:29N 62°53' E 008°08'5 9.8
2018-Feb-20 20:00N 62°49' E 008°13'510.2
2018-Feb-20 19:30N 62°46' E 008°23'510.1
2018-Feb-20 18:59N 62°43' E 008°31'2 3.9
2018-Feb-20 18:29N 62°41' E 008°33'0 0.0
2018-Feb-20 17:59N 62°41' E 008°33'0 0.0
2018-Feb-20 17:29N 62°41' E 008°33'0 0.0
2018-Feb-20 16:59N 62°41' E 008°33'0 0.0
2018-Feb-20 16:17N 62°41' E 008°33'0 0.0
2018-Feb-20 15:56N 62°41' E 008°33'0 0.0
2018-Feb-20 15:29N 62°41' E 008°33'0 0.0
2018-Feb-20 14:59N 62°41' E 008°33'0 0.0
2018-Feb-20 14:26N 62°41' E 008°33'0 0.0
2018-Feb-20 13:59N 62°41' E 008°33'0 0.0
2018-Feb-20 13:29N 62°41' E 008°33'0 0.0
2018-Feb-20 12:59N 62°41' E 008°33'0 0.0
2018-Feb-20 12:29N 62°41' E 008°33'0 0.0
2018-Feb-20 11:59N 62°41' E 008°33'0 0.0
2018-Feb-20 11:29N 62°41' E 008°33'0 0.0
2018-Feb-20 10:59N 62°41' E 008°33'0 0.0
2018-Feb-20 10:29N 62°41' E 008°33'0 0.0
2018-Feb-20 09:59N 62°41' E 008°33'0 0.0
2018-Feb-20 09:29N 62°41' E 008°33'0 0.0
2018-Feb-20 08:59N 62°41' E 008°33'0 0.0
2018-Feb-20 08:26N 62°41' E 008°33'0 0.0
2018-Feb-20 07:56N 62°41' E 008°33'0 0.0
2018-Feb-20 07:29N 62°41' E 008°33'0 0.0
2018-Feb-20 06:59N 62°41' E 008°33'0 0.0
2018-Feb-20 06:29N 62°41' E 008°33'0 0.0
2018-Feb-20 05:59N 62°41' E 008°33'0 0.0
2018-Feb-20 05:29N 62°41' E 008°33'0 0.0
2018-Feb-20 04:59N 62°41' E 008°33'0 0.0
2018-Feb-20 04:29N 62°41' E 008°33'0 0.0
2018-Feb-20 03:59N 62°41' E 008°33'0 0.0
2018-Feb-20 03:29N 62°41' E 008°33'0 0.0
2018-Feb-20 02:56N 62°41' E 008°33'0 0.0
2018-Feb-20 02:26N 62°41' E 008°33'0 0.0
2018-Feb-20 01:59N 62°41' E 008°33'0 0.0
2018-Feb-20 01:29N 62°41' E 008°33'0 0.0
2018-Feb-20 00:59N 62°41' E 008°33'0 0.0
2018-Feb-20 00:29N 62°41' E 008°33'0 0.0
2018-Feb-19 23:59N 62°41' E 008°33'0 0.0
2018-Feb-19 23:26N 62°41' E 008°33'0 0.0
2018-Feb-19 22:59N 62°41' E 008°33'0 0.0
2018-Feb-19 22:29N 62°41' E 008°33'0 0.0
2018-Feb-19 21:59N 62°41' E 008°33'0 0.0
2018-Feb-19 21:29N 62°41' E 008°33'0 0.0
2018-Feb-19 20:56N 62°41' E 008°33'0 0.0
2018-Feb-19 20:26N 62°41' E 008°33'0 0.0
2018-Feb-19 19:59N 62°41' E 008°33'0 0.0
2018-Feb-19 19:29N 62°41' E 008°33'0 0.0
2018-Feb-19 18:59N 62°41' E 008°33'0 0.0
2018-Feb-19 18:29N 62°41' E 008°33'0 0.0
2018-Feb-19 17:56N 62°41' E 008°33'0 0.0
2018-Feb-19 17:23N 62°41' E 008°33'0 0.0
2018-Feb-19 16:56N 62°41' E 008°33'0 0.0
2018-Feb-19 16:29N 62°41' E 008°33'0 0.0
2018-Feb-19 15:59N 62°41' E 008°33'0 0.0
2018-Feb-19 15:29N 62°41' E 008°33'0 0.0
2018-Feb-19 14:59N 62°41' E 008°33'0 0.0
2018-Feb-19 14:26N 62°41' E 008°33'0 0.0
2018-Feb-19 13:59N 62°41' E 008°33'0 0.0
2018-Feb-19 13:26N 62°41' E 008°33'0 0.0
2018-Feb-19 12:56N 62°41' E 008°33'0 0.0
2018-Feb-19 12:29N 62°41' E 008°33'0 0.0
2018-Feb-19 11:59N 62°41' E 008°33'0 0.0
2018-Feb-19 11:30N 62°41' E 008°33'2 4.6
2018-Feb-19 11:00N 62°43' E 008°31'5 9.7
2018-Feb-19 10:30N 62°46' E 008°22'5 9.6
2018-Feb-19 10:00N 62°49' E 008°14'5 9.6
2018-Feb-19 09:30N 62°53' E 008°08'5 9.7
2018-Feb-19 09:00N 62°57' E 008°04'5 9.2
2018-Feb-19 08:30N 62°58' E 007°55'4 8.2
2018-Feb-19 08:00N 62°59' E 007°46'2 4.5
2018-Feb-19 07:28N 63°01' E 007°50'0 0.1
2018-Feb-19 06:58N 63°01' E 007°50'0 0.0
2018-Feb-19 06:28N 63°01' E 007°50'0 0.0
2018-Feb-19 05:58N 63°01' E 007°50'0 0.0
2018-Feb-19 05:28N 63°01' E 007°50'0 0.0
2018-Feb-19 04:58N 63°01' E 007°50'0 0.0
2018-Feb-19 04:28N 63°01' E 007°50'0 0.1
2018-Feb-19 03:58N 63°01' E 007°50'0 0.0
2018-Feb-19 03:28N 63°01' E 007°50'0 0.0
2018-Feb-19 02:58N 63°01' E 007°50'0 0.1
2018-Feb-19 02:28N 63°01' E 007°50'0 0.0
2018-Feb-19 01:58N 63°01' E 007°50'0 0.0
2018-Feb-19 01:28N 63°01' E 007°50'0 0.0
2018-Feb-19 00:58N 63°01' E 007°50'0 0.0
2018-Feb-19 00:28N 63°01' E 007°50'0 0.1
2018-Feb-18 23:58N 63°01' E 007°50'0 0.1
2018-Feb-18 23:28N 63°01' E 007°50'0 0.0
2018-Feb-18 22:58N 63°01' E 007°50'0 0.0
2018-Feb-18 22:28N 63°01' E 007°50'0 0.0
2018-Feb-18 21:58N 63°01' E 007°50'0 0.0
2018-Feb-18 21:28N 63°01' E 007°50'0 0.1
2018-Feb-18 20:58N 63°01' E 007°50'0 0.1
2018-Feb-18 20:28N 63°01' E 007°50'0 0.0
2018-Feb-18 19:58N 63°01' E 007°50'0 0.0
2018-Feb-18 19:28N 63°01' E 007°50'0 0.2
2018-Feb-18 18:58N 63°01' E 007°50'0 0.1
2018-Feb-18 18:28N 63°01' E 007°50'0 0.0
2018-Feb-18 17:58N 63°01' E 007°50'0 0.0
2018-Feb-18 17:28N 63°01' E 007°50'0 0.1
2018-Feb-18 16:58N 63°01' E 007°50'0 0.0
2018-Feb-18 16:28N 63°01' E 007°50'0 0.1
2018-Feb-18 15:58N 63°01' E 007°50'0 0.0
2018-Feb-18 15:28N 63°01' E 007°50'0 0.0
2018-Feb-18 14:58N 63°01' E 007°50'0 0.0
2018-Feb-18 14:28N 63°01' E 007°50'0 0.0
2018-Feb-18 13:58N 63°01' E 007°50'0 0.0
2018-Feb-18 13:28N 63°01' E 007°50'0 0.0
2018-Feb-18 12:58N 63°01' E 007°50'0 0.0
2018-Feb-18 12:28N 63°01' E 007°50'0 0.0
2018-Feb-18 11:58N 63°01' E 007°50'0 0.0
2018-Feb-18 11:28N 63°01' E 007°50'0 0.0
2018-Feb-18 10:58N 63°01' E 007°50'0 0.1
2018-Feb-18 10:28N 63°01' E 007°50'0 0.0
2018-Feb-18 09:58N 63°01' E 007°50'0 0.0
2018-Feb-18 09:28N 63°01' E 007°50'0 0.1
2018-Feb-18 08:58N 63°01' E 007°50'0 0.0
2018-Feb-18 08:28N 63°01' E 007°50'0 0.0
2018-Feb-18 07:58N 63°01' E 007°50'0 0.1
2018-Feb-18 07:28N 63°01' E 007°50'0 0.1
2018-Feb-18 06:58N 63°01' E 007°50'0 0.0
2018-Feb-18 06:28N 63°01' E 007°50'0 0.0
2018-Feb-18 05:58N 63°01' E 007°50'0 0.0
2018-Feb-18 05:28N 63°01' E 007°50'0 0.0
2018-Feb-18 04:58N 63°01' E 007°50'0 0.0
2018-Feb-18 04:28N 63°01' E 007°50'0 0.0
2018-Feb-18 03:58N 63°01' E 007°50'0 0.0
2018-Feb-18 03:28N 63°01' E 007°50'0 0.0
2018-Feb-18 02:58N 63°01' E 007°50'0 0.0
2018-Feb-18 02:28N 63°01' E 007°50'0 0.0
2018-Feb-18 01:58N 63°01' E 007°50'0 0.0
2018-Feb-18 01:28N 63°01' E 007°50'0 0.0
2018-Feb-18 00:58N 63°01' E 007°50'0 0.1
2018-Feb-18 00:28N 63°01' E 007°50'0 0.0
2018-Feb-17 23:58N 63°01' E 007°50'0 0.0
2018-Feb-17 23:28N 63°01' E 007°50'0 0.1
2018-Feb-17 22:58N 63°01' E 007°50'0 0.0
2018-Feb-17 22:28N 63°01' E 007°50'0 0.1
2018-Feb-17 21:58N 63°01' E 007°50'0 1.1
2018-Feb-17 21:30N 63°02' E 007°51'4 9.0
2018-Feb-17 21:00N 63°06' E 007°55'5 9.2
2018-Feb-17 20:30N 63°09' E 007°49'5 9.0
2018-Feb-17 20:00N 63°13' E 007°44'4 8.2
2018-Feb-17 19:30N 63°15' E 007°36'4 7.9
2018-Feb-17 19:00N 63°13' E 007°28'5 9.9
2018-Feb-17 18:30N 63°11' E 007°18'510.3
2018-Feb-17 18:00N 63°08' E 007°09'510.1
2018-Feb-17 17:29N 63°05' E 006°59'5 9.9
2018-Feb-17 17:00N 63°03' E 006°50'5 9.8
2018-Feb-17 16:30N 62°60' E 006°41'5 9.5
2018-Feb-17 16:00N 62°58' E 006°31'510.1
2018-Feb-17 15:30N 62°56' E 006°21'510.7
2018-Feb-17 15:00N 62°53' E 006°11'510.3
2018-Feb-17 14:30N 62°50' E 006°02'510.2
2018-Feb-17 14:00N 62°46' E 005°54'5 9.6
2018-Feb-17 13:30N 62°43' E 005°47'510.9
2018-Feb-17 13:00N 62°39' E 005°39'510.1
2018-Feb-17 12:30N 62°35' E 005°32'5 9.7
2018-Feb-17 11:59N 62°31' E 005°25'5 9.6
2018-Feb-17 11:30N 62°28' E 005°18'510.2
2018-Feb-17 11:00N 62°24' E 005°11'5 9.8
2018-Feb-17 10:30N 62°20' E 005°03'5 9.8
2018-Feb-17 10:00N 62°17' E 004°56'5 9.7
2018-Feb-17 09:30N 62°13' E 004°49'5 9.7
2018-Feb-17 09:00N 62°09' E 004°43'510.9
2018-Feb-17 08:30N 62°04' E 004°39'611.4
2018-Feb-17 08:00N 61°59' E 004°34'611.1
2018-Feb-17 07:29N 61°54' E 004°31'510.9
2018-Feb-17 07:00N 61°49' E 004°27'510.6
2018-Feb-17 06:30N 61°43' E 004°24'  
2018-Feb-14 14:21N 52°12' E 001°47'411.4
2018-Feb-14 14:00N 52°08' E 001°44'611.5
2018-Feb-14 13:31N 52°03' E 001°39'611.4
2018-Feb-14 13:00N 51°58' E 001°35'510.3
2018-Feb-14 12:31N 51°56' E 001°28'5 9.2
2018-Feb-14 12:01N 51°55' E 001°20'4 7.3
2018-Feb-14 11:31N 51°57' E 001°15'4 8.5
2018-Feb-14 11:00N 51°57' E 001°08'2 3.6
2018-Feb-14 10:30N 51°57' E 001°05'0 0.0
2018-Feb-14 10:00N 51°57' E 001°05'0 0.0
2018-Feb-14 09:30N 51°57' E 001°05'0 0.0
2018-Feb-14 09:00N 51°57' E 001°05'0 0.0
2018-Feb-14 08:30N 51°57' E 001°05'0 0.0
2018-Feb-14 08:00N 51°57' E 001°05'0 0.0
2018-Feb-14 07:30N 51°57' E 001°05'0 0.0
2018-Feb-14 07:00N 51°57' E 001°05'0 0.0
2018-Feb-14 06:30N 51°57' E 001°05'0 0.0
2018-Feb-14 06:00N 51°57' E 001°05'0 0.0
2018-Feb-14 05:30N 51°57' E 001°05'0 0.0
2018-Feb-14 05:00N 51°57' E 001°05'0 0.0
2018-Feb-14 04:30N 51°57' E 001°05'0 0.0
2018-Feb-14 04:00N 51°57' E 001°05'0 0.0
2018-Feb-14 03:30N 51°57' E 001°05'0 0.0
2018-Feb-14 03:00N 51°57' E 001°05'0 0.0
2018-Feb-14 02:30N 51°57' E 001°05'0 0.0
2018-Feb-14 02:00N 51°57' E 001°05'0 0.0
2018-Feb-14 01:30N 51°57' E 001°05'0 0.0
2018-Feb-14 01:00N 51°57' E 001°05'0 0.0
2018-Feb-14 00:30N 51°57' E 001°05'0 0.0
2018-Feb-14 00:00N 51°57' E 001°05'0 0.0
2018-Feb-13 23:30N 51°57' E 001°05'0 0.0
2018-Feb-13 23:00N 51°57' E 001°05'0 0.0
2018-Feb-13 22:30N 51°57' E 001°05'0 0.0
2018-Feb-13 22:00N 51°57' E 001°05'0 0.0
2018-Feb-13 21:30N 51°57' E 001°05'0 0.0
2018-Feb-13 21:00N 51°57' E 001°05'0 0.0
2018-Feb-13 20:30N 51°57' E 001°05'0 0.0
2018-Feb-13 20:00N 51°57' E 001°05'0 0.0
2018-Feb-13 19:30N 51°57' E 001°05'0 0.0
2018-Feb-13 19:00N 51°57' E 001°05'0 0.0
2018-Feb-13 18:30N 51°57' E 001°05'0 0.0
2018-Feb-13 18:00N 51°57' E 001°05'0 0.0
2018-Feb-13 17:30N 51°57' E 001°05'0 0.0
2018-Feb-13 17:00N 51°57' E 001°05'0 0.0
2018-Feb-13 16:30N 51°57' E 001°05'0 0.0
2018-Feb-13 16:00N 51°57' E 001°05'0 0.0
2018-Feb-13 15:30N 51°57' E 001°05'0 0.0
2018-Feb-13 15:00N 51°57' E 001°05'0 0.0
2018-Feb-13 14:30N 51°57' E 001°05'0 0.0
2018-Feb-13 14:00N 51°57' E 001°05'0 0.0
2018-Feb-13 13:30N 51°57' E 001°05'0 0.0
2018-Feb-13 13:00N 51°57' E 001°05'0 0.0
2018-Feb-13 12:30N 51°57' E 001°05'0 0.0
2018-Feb-13 12:00N 51°57' E 001°05'0 0.0
2018-Feb-13 11:30N 51°57' E 001°05'0 0.0
2018-Feb-13 11:00N 51°57' E 001°05'0 0.0
2018-Feb-13 10:30N 51°57' E 001°05'0 0.0
2018-Feb-13 10:00N 51°57' E 001°05'0 0.0
2018-Feb-13 09:30N 51°57' E 001°05'0 0.0
2018-Feb-13 09:00N 51°57' E 001°05'0 0.0
2018-Feb-13 08:30N 51°57' E 001°05'0 0.0
2018-Feb-13 08:00N 51°57' E 001°05'0 0.0
2018-Feb-13 07:30N 51°57' E 001°05'0 0.0
2018-Feb-13 07:00N 51°57' E 001°05'0 0.0
2018-Feb-13 06:30N 51°57' E 001°05'0 0.0
2018-Feb-13 06:00N 51°57' E 001°05'0 0.0
2018-Feb-13 05:30N 51°57' E 001°05'0 0.0
2018-Feb-13 05:00N 51°57' E 001°05'0 0.0
2018-Feb-13 04:30N 51°57' E 001°05'0 0.0
2018-Feb-13 04:00N 51°57' E 001°05'0 0.0
2018-Feb-13 03:30N 51°57' E 001°05'0 0.0
2018-Feb-13 03:00N 51°57' E 001°05'0 0.0
2018-Feb-13 02:30N 51°57' E 001°05'0 0.0
2018-Feb-13 02:00N 51°57' E 001°05'0 0.0
2018-Feb-13 01:30N 51°57' E 001°05'0 0.0
2018-Feb-13 01:00N 51°57' E 001°05'0 0.0
2018-Feb-13 00:30N 51°57' E 001°05'0 0.0
2018-Feb-13 00:00N 51°57' E 001°05'0 0.0
2018-Feb-12 23:30N 51°57' E 001°05'0 0.0
2018-Feb-12 23:00N 51°57' E 001°05'0 0.0
2018-Feb-12 22:30N 51°57' E 001°05'0 0.0
2018-Feb-12 22:00N 51°57' E 001°05'0 0.0
2018-Feb-12 21:30N 51°57' E 001°05'0 0.0
2018-Feb-12 21:00N 51°57' E 001°05'0 0.0
2018-Feb-12 20:30N 51°57' E 001°05'0 0.0
2018-Feb-12 20:00N 51°57' E 001°05'0 0.0
2018-Feb-12 19:30N 51°57' E 001°05'0 0.0
2018-Feb-12 19:00N 51°57' E 001°05'0 0.0
2018-Feb-12 18:30N 51°57' E 001°05'0 0.0
2018-Feb-12 18:00N 51°57' E 001°05'0 0.0
2018-Feb-12 17:30N 51°57' E 001°05'0 0.0
2018-Feb-12 17:00N 51°57' E 001°05'0 0.0
2018-Feb-12 16:30N 51°57' E 001°05'0 0.0
2018-Feb-12 16:00N 51°57' E 001°05'0 0.0
2018-Feb-12 15:30N 51°57' E 001°05'0 0.0
2018-Feb-12 15:00N 51°57' E 001°05'0 0.0
2018-Feb-12 14:30N 51°57' E 001°05'0 0.0
2018-Feb-12 14:00N 51°57' E 001°05'0 0.0
2018-Feb-12 13:30N 51°57' E 001°05'0 0.0
2018-Feb-12 13:00N 51°57' E 001°05'0 0.0
2018-Feb-12 12:30N 51°57' E 001°05'0 0.0
2018-Feb-12 12:00N 51°57' E 001°05'0 0.0
2018-Feb-12 11:30N 51°57' E 001°05'0 0.0
2018-Feb-12 11:00N 51°57' E 001°05'0 0.0
2018-Feb-12 10:30N 51°57' E 001°05'0 0.0
2018-Feb-12 10:00N 51°57' E 001°05'0 0.0
2018-Feb-12 09:30N 51°57' E 001°05'0 0.0
2018-Feb-12 09:00N 51°57' E 001°05'0 0.0
2018-Feb-12 08:31N 51°57' E 001°05'2 5.0
2018-Feb-12 08:01N 51°57' E 001°09'3 6.9
2018-Feb-12 07:30N 51°57' E 001°15'3 5.4
2018-Feb-12 07:00N 51°56' E 001°19'3 6.5
2018-Feb-12 06:31N 51°56' E 001°24'1 2.3
2018-Feb-12 06:00N 51°57' E 001°25'0 0.1
2018-Feb-12 05:30N 51°57' E 001°25'0 0.0
2018-Feb-12 05:00N 51°57' E 001°25'0 0.0
2018-Feb-12 04:30N 51°57' E 001°25'0 0.1
2018-Feb-12 04:00N 51°57' E 001°25'0 0.2
2018-Feb-12 03:30N 51°57' E 001°26'0 0.1
2018-Feb-12 03:00N 51°57' E 001°26'0 0.0
2018-Feb-12 02:30N 51°57' E 001°26'0 0.0
2018-Feb-12 02:00N 51°57' E 001°26'0 0.0
2018-Feb-12 01:30N 51°57' E 001°26'0 0.0
2018-Feb-12 01:00N 51°57' E 001°26'0 0.0
2018-Feb-12 00:30N 51°57' E 001°26'0 0.0
2018-Feb-12 00:00N 51°57' E 001°26'0 0.0
2018-Feb-11 23:30N 51°57' E 001°26'0 0.0
2018-Feb-11 23:00N 51°57' E 001°26'0 0.0
2018-Feb-11 22:30N 51°57' E 001°26'0 0.0
2018-Feb-11 22:00N 51°57' E 001°26'0 0.0
2018-Feb-11 21:30N 51°57' E 001°26'0 0.0
2018-Feb-11 21:00N 51°57' E 001°26'0 0.0
2018-Feb-11 20:30N 51°57' E 001°26'0 0.1
2018-Feb-11 20:00N 51°57' E 001°26'0 0.1
2018-Feb-11 19:30N 51°57' E 001°25'0 0.0
2018-Feb-11 19:00N 51°57' E 001°25'0 0.0
2018-Feb-11 18:30N 51°57' E 001°25'0 0.0
2018-Feb-11 18:00N 51°57' E 001°25'0 0.2
2018-Feb-11 17:30N 51°57' E 001°26'3 7.0
2018-Feb-11 17:00N 51°57' E 001°31'4 7.7
2018-Feb-11 16:30N 51°53' E 001°34'4 8.4
2018-Feb-11 16:00N 51°52' E 001°40'4 9.0
2018-Feb-11 15:30N 51°50' E 001°47'4 8.9
2018-Feb-11 15:00N 51°46' E 001°48'5 9.2
2018-Feb-11 14:30N 51°42' E 001°49'5 9.0
2018-Feb-11 14:00N 51°37' E 001°50'5 9.3
2018-Feb-11 13:30N 51°33' E 001°48'5 9.2
2018-Feb-11 13:00N 51°28' E 001°47'5 9.6
2018-Feb-11 12:30N 51°23' E 001°45'510.3
2018-Feb-11 12:00N 51°19' E 001°42'510.8
2018-Feb-11 11:30N 51°13' E 001°39'5 9.4
2018-Feb-11 11:00N 51°09' E 001°39'4 8.9
2018-Feb-11 10:30N 51°04' E 001°39'611.0
2018-Feb-11 09:59N 50°59' E 001°34'511.3
2018-Feb-11 09:30N 50°55' E 001°30'710.7
2018-Feb-11 08:53N 50°49' E 001°25'7 9.9
2018-Feb-11 08:08N 50°42' E 001°19'  

Dump ship's entire track history